Airport View

Enter AWOS ICAO identifier for current METAR.

ex. KFNL

KEKS 011135Z AUTO 10SM OVC110 01/M02 A3050 RMK AO2

1 Oct 2020 12:00

Frequency: 119.85

Phone: 406-682-3835

Other Area AWOS: KBZN - KDLN - KWYS - KLVM

TAF KEKS 010531Z 0106/0206 VRB06KT P6SM SKC AMD NOT SKED